createdAt,value
2023-06-16T00:00:00.612Z,15.86
2023-06-16T00:02:36.133Z,15.93
2023-06-16T00:05:11.489Z,15.98
2023-06-16T00:07:44.197Z,16.01
2023-06-16T00:10:17.077Z,16.09
2023-06-16T00:12:49.717Z,16.03
2023-06-16T00:15:22.437Z,16.15
2023-06-16T00:17:58.414Z,16.11
2023-06-16T00:20:31.159Z,15.95
2023-06-16T00:23:03.600Z,15.95
2023-06-16T00:25:36.000Z,16.04
2023-06-16T00:28:08.399Z,15.77
2023-06-16T00:30:40.835Z,15.56
2023-06-16T00:33:18.663Z,15.51
2023-06-16T00:35:51.086Z,15.28
2023-06-16T00:38:22.757Z,15.39
2023-06-16T00:40:54.775Z,15.29
2023-06-16T00:43:26.561Z,15.15
2023-06-16T00:45:58.870Z,15.19
2023-06-16T00:48:33.197Z,15.12
2023-06-16T00:51:06.136Z,15.20
2023-06-16T00:53:37.796Z,15.20
2023-06-16T00:56:10.003Z,15.01
2023-06-16T00:58:52.774Z,14.86
2023-06-16T01:01:30.724Z,14.75
2023-06-16T01:04:05.497Z,14.83
2023-06-16T01:06:50.880Z,14.73
2023-06-16T01:09:28.274Z,14.89
2023-06-16T01:12:08.556Z,14.90
2023-06-16T01:14:50.806Z,14.77
2023-06-16T01:17:27.643Z,14.63
2023-06-16T01:20:10.482Z,14.71
2023-06-16T01:23:02.546Z,14.76
2023-06-16T01:25:39.995Z,14.63
2023-06-16T01:28:14.581Z,14.63
2023-06-16T01:30:51.818Z,14.61
2023-06-16T01:33:27.278Z,14.66
2023-06-16T01:35:59.724Z,14.62
2023-06-16T01:38:33.155Z,14.65
2023-06-16T01:41:08.479Z,14.67
2023-06-16T01:43:42.311Z,14.71
2023-06-16T01:46:14.732Z,14.69
2023-06-16T01:48:47.400Z,14.70
2023-06-16T01:51:19.861Z,14.67
2023-06-16T01:53:52.647Z,14.74
2023-06-16T01:56:27.139Z,14.69
2023-06-16T01:58:59.317Z,14.75
2023-06-16T02:01:33.277Z,14.76
2023-06-16T02:04:13.041Z,14.72
2023-06-16T02:06:49.161Z,14.85
2023-06-16T02:09:22.621Z,14.76
2023-06-16T02:11:57.518Z,14.53
2023-06-16T02:14:30.366Z,14.60
2023-06-16T02:17:04.458Z,14.69
2023-06-16T02:19:39.504Z,14.82
2023-06-16T02:22:11.685Z,14.90
2023-06-16T02:24:47.346Z,14.99
2023-06-16T02:27:22.209Z,14.95
2023-06-16T02:29:58.779Z,14.86
2023-06-16T02:32:31.512Z,14.94
2023-06-16T02:35:05.592Z,14.81
2023-06-16T02:37:39.981Z,14.83
2023-06-16T02:40:13.838Z,14.84
2023-06-16T02:42:48.785Z,14.83
2023-06-16T02:45:21.276Z,14.75
2023-06-16T02:47:53.345Z,14.66
2023-06-16T02:50:26.253Z,14.76
2023-06-16T02:52:59.187Z,14.71
2023-06-16T02:55:31.497Z,14.70
2023-06-16T02:58:06.358Z,14.71
2023-06-16T03:00:38.920Z,14.57
2023-06-16T03:03:11.506Z,14.64
2023-06-16T03:05:47.034Z,14.63
2023-06-16T03:08:19.145Z,14.74
2023-06-16T03:10:52.936Z,14.71
2023-06-16T03:13:27.440Z,14.46
2023-06-16T03:16:02.313Z,14.42
2023-06-16T03:18:34.774Z,14.39
2023-06-16T03:21:07.040Z,14.35
2023-06-16T03:23:38.748Z,14.36
2023-06-16T03:26:10.855Z,14.51
2023-06-16T03:28:45.537Z,14.59
2023-06-16T03:31:17.515Z,14.56
2023-06-16T03:33:49.225Z,14.57
2023-06-16T03:36:21.377Z,14.51
2023-06-16T03:38:53.060Z,14.48
2023-06-16T03:41:25.179Z,14.38
2023-06-16T03:43:59.497Z,14.37
2023-06-16T03:46:33.843Z,14.35
2023-06-16T03:49:19.177Z,14.40
2023-06-16T03:51:51.196Z,14.42
2023-06-16T03:54:23.787Z,14.29
2023-06-16T03:56:55.915Z,14.29
2023-06-16T03:59:30.254Z,14.36
2023-06-16T04:02:07.967Z,14.30
2023-06-16T04:04:39.877Z,14.41
2023-06-16T04:07:13.319Z,14.37
2023-06-16T04:09:44.935Z,14.41
2023-06-16T04:12:17.100Z,14.38
2023-06-16T04:14:52.177Z,14.36
2023-06-16T04:17:24.143Z,14.32
2023-06-16T04:19:56.255Z,14.35
2023-06-16T04:22:28.253Z,14.37
2023-06-16T04:24:59.897Z,14.29
2023-06-16T04:27:33.663Z,14.39
2023-06-16T04:30:09.538Z,14.33
2023-06-16T04:32:41.967Z,14.47
2023-06-16T04:35:14.305Z,14.54
2023-06-16T04:37:46.781Z,14.34
2023-06-16T04:40:18.781Z,14.45
2023-06-16T04:42:51.503Z,14.45
2023-06-16T04:45:25.812Z,14.41
2023-06-16T04:47:57.876Z,14.39
2023-06-16T04:50:29.522Z,14.46
2023-06-16T04:53:01.679Z,14.48
2023-06-16T04:55:33.343Z,14.38
2023-06-16T04:58:05.706Z,14.39
2023-06-16T05:00:40.022Z,14.46
2023-06-16T05:03:12.400Z,14.52
2023-06-16T05:05:44.580Z,14.51
2023-06-16T05:08:16.642Z,14.53
2023-06-16T05:10:48.968Z,14.48
2023-06-16T05:13:21.466Z,14.48
2023-06-16T05:15:56.302Z,14.50
2023-06-16T05:18:28.908Z,14.63
2023-06-16T05:21:01.063Z,14.70
2023-06-16T05:23:33.438Z,14.53
2023-06-16T05:26:05.399Z,14.66
2023-06-16T05:28:37.945Z,14.67
2023-06-16T05:31:12.419Z,14.56
2023-06-16T05:33:44.481Z,14.61
2023-06-16T05:36:16.233Z,14.69
2023-06-16T05:38:49.501Z,14.54
2023-06-16T05:41:25.071Z,14.61
2023-06-16T05:43:58.539Z,14.54
2023-06-16T05:46:33.498Z,14.67
2023-06-16T05:49:05.733Z,14.47
2023-06-16T05:51:38.217Z,14.66
2023-06-16T05:54:10.267Z,14.68
2023-06-16T05:56:41.925Z,14.60
2023-06-16T05:59:13.931Z,14.70
2023-06-16T06:01:48.274Z,14.78
2023-06-16T06:04:24.894Z,14.86
2023-06-16T06:06:56.755Z,14.76
2023-06-16T06:09:29.263Z,14.71
2023-06-16T06:12:01.060Z,14.69
2023-06-16T06:14:33.143Z,14.65
2023-06-16T06:17:08.023Z,14.56
2023-06-16T06:19:40.185Z,14.46
2023-06-16T06:22:11.976Z,14.43
2023-06-16T06:24:44.089Z,14.26
2023-06-16T06:27:16.534Z,14.21
2023-06-16T06:29:48.695Z,14.20
2023-06-16T06:32:23.075Z,14.20
2023-06-16T06:34:55.219Z,14.20
2023-06-16T06:37:32.256Z,14.16
2023-06-16T06:40:04.277Z,14.31
2023-06-16T06:42:36.118Z,14.33
2023-06-16T06:45:10.650Z,14.31
2023-06-16T06:47:45.110Z,14.45
2023-06-16T06:50:17.485Z,14.34
2023-06-16T06:52:49.445Z,14.37
2023-06-16T06:55:22.362Z,14.26
2023-06-16T06:57:54.162Z,14.34
2023-06-16T07:00:26.260Z,14.31
2023-06-16T07:03:01.267Z,14.33
2023-06-16T07:05:35.481Z,14.35
2023-06-16T07:08:08.117Z,14.26
2023-06-16T07:10:40.226Z,14.30
2023-06-16T07:13:12.012Z,14.25
2023-06-16T07:15:44.473Z,14.38
2023-06-16T07:18:19.460Z,14.42
2023-06-16T07:20:51.896Z,14.57
2023-06-16T07:23:23.975Z,14.48
2023-06-16T07:25:56.552Z,14.39
2023-06-16T07:28:28.990Z,14.44
2023-06-16T07:31:01.938Z,14.61
2023-06-16T07:33:37.232Z,14.71
2023-06-16T07:36:44.497Z,14.63
2023-06-16T07:39:17.467Z,14.78
2023-06-16T07:41:50.136Z,14.83
2023-06-16T07:44:22.560Z,14.68
2023-06-16T07:46:55.666Z,14.80
2023-06-16T07:49:30.948Z,14.86
2023-06-16T07:52:04.228Z,15.02
2023-06-16T07:54:36.740Z,15.07
2023-06-16T07:57:10.602Z,15.41
2023-06-16T07:59:43.025Z,15.64
2023-06-16T08:02:15.857Z,15.92
2023-06-16T08:04:51.118Z,16.35
2023-06-16T08:07:23.861Z,16.97
2023-06-16T08:09:56.341Z,17.69
2023-06-16T08:12:29.705Z,17.83
2023-06-16T08:15:02.139Z,18.26
2023-06-16T08:17:35.044Z,18.20
2023-06-16T08:20:11.945Z,18.33
2023-06-16T08:22:46.420Z,18.30
2023-06-16T08:25:18.867Z,17.98
2023-06-16T08:27:51.790Z,17.61
2023-06-16T08:30:24.566Z,17.40
2023-06-16T08:32:57.279Z,17.37
2023-06-16T08:35:32.477Z,17.11
2023-06-16T08:38:05.384Z,17.06
2023-06-16T08:40:38.105Z,15.75
2023-06-16T08:43:13.096Z,15.65
2023-06-16T08:45:47.255Z,15.41
2023-06-16T08:48:20.254Z,15.28
2023-06-16T08:51:15.877Z,15.20
2023-06-16T08:53:58.976Z,15.19
2023-06-16T08:56:33.460Z,15.14
2023-06-16T08:59:07.509Z,15.24
2023-06-16T09:01:41.110Z,15.14
2023-06-16T09:04:15.510Z,15.15
2023-06-16T09:06:57.573Z,15.28
2023-06-16T09:09:30.615Z,15.33
2023-06-16T09:12:10.744Z,15.39
2023-06-16T09:14:50.054Z,15.47
2023-06-16T09:17:26.830Z,15.70
2023-06-16T09:20:00.418Z,15.77
2023-06-16T09:22:35.592Z,16.16
2023-06-16T09:25:10.742Z,16.85
2023-06-16T09:27:47.891Z,16.58
2023-06-16T09:30:22.837Z,16.43
2023-06-16T09:32:56.745Z,16.50
2023-06-16T09:35:30.846Z,16.52
2023-06-16T09:38:07.538Z,17.43
2023-06-16T09:40:40.447Z,17.75
2023-06-16T09:43:13.259Z,17.87
2023-06-16T09:45:46.323Z,17.72
2023-06-16T09:48:19.014Z,17.77
2023-06-16T09:50:57.102Z,17.00
2023-06-16T09:53:32.375Z,17.78
2023-06-16T09:56:05.898Z,18.17
2023-06-16T09:58:42.730Z,18.06
2023-06-16T10:01:16.996Z,17.83
2023-06-16T10:03:53.178Z,17.65
2023-06-16T10:06:29.781Z,17.55
2023-06-16T10:09:08.660Z,17.23
2023-06-16T10:11:42.816Z,17.05
2023-06-16T10:14:16.018Z,17.24
2023-06-16T10:16:51.955Z,17.04
2023-06-16T10:19:28.766Z,16.89
2023-06-16T10:22:01.380Z,17.00
2023-06-16T10:24:38.080Z,17.02
2023-06-16T10:27:12.503Z,16.84
2023-06-16T10:29:48.139Z,16.89
2023-06-16T10:32:20.738Z,17.01
2023-06-16T10:34:58.695Z,17.43
2023-06-16T10:37:33.306Z,17.08
2023-06-16T10:40:11.457Z,17.03
2023-06-16T10:42:45.231Z,17.12
2023-06-16T10:45:28.382Z,17.05
2023-06-16T10:48:04.501Z,16.79
2023-06-16T10:50:45.342Z,16.97
2023-06-16T10:53:19.156Z,17.27
2023-06-16T10:56:09.705Z,17.76
2023-06-16T10:58:42.260Z,18.09
2023-06-16T11:01:30.158Z,18.54
2023-06-16T11:04:08.157Z,18.79
2023-06-16T11:07:30.587Z,18.51
2023-06-16T11:10:08.028Z,18.46
2023-06-16T11:13:03.740Z,17.94
2023-06-16T11:15:36.669Z,17.94
2023-06-16T11:18:10.560Z,18.00
2023-06-16T11:20:43.898Z,17.85
2023-06-16T11:23:15.939Z,18.04
2023-06-16T11:25:48.416Z,18.43
2023-06-16T11:28:24.176Z,18.26
2023-06-16T11:30:56.746Z,18.47
2023-06-16T11:33:29.018Z,18.20
2023-06-16T11:36:09.220Z,18.29
2023-06-16T11:38:46.217Z,17.92
2023-06-16T11:41:19.821Z,18.70
2023-06-16T11:43:56.547Z,19.03
2023-06-16T11:46:31.997Z,19.36
2023-06-16T11:49:06.418Z,19.36
2023-06-16T11:51:39.296Z,19.26
2023-06-16T11:54:13.500Z,18.57
2023-06-16T11:56:46.019Z,18.35
2023-06-16T11:59:21.350Z,17.82
2023-06-16T12:01:54.179Z,17.35
2023-06-16T12:04:26.710Z,17.34
2023-06-16T12:07:01.205Z,17.22
2023-06-16T12:09:41.504Z,17.21
2023-06-16T12:12:15.463Z,17.32
2023-06-16T12:14:50.943Z,17.45
2023-06-16T12:17:27.164Z,17.69
2023-06-16T12:20:00.110Z,17.71
2023-06-16T12:22:40.188Z,17.87
2023-06-16T12:25:16.825Z,17.98
2023-06-16T12:27:51.032Z,17.94
2023-06-16T12:30:36.292Z,18.06
2023-06-16T12:33:14.459Z,18.07
2023-06-16T12:35:50.704Z,17.96
2023-06-16T12:38:35.156Z,17.97
2023-06-16T12:41:07.622Z,17.92
2023-06-16T12:43:40.463Z,17.71
2023-06-16T12:46:15.672Z,17.96
2023-06-16T12:48:48.865Z,18.09
2023-06-16T12:51:23.221Z,18.18
2023-06-16T12:53:56.066Z,18.38
2023-06-16T12:56:28.704Z,18.53
2023-06-16T12:59:03.824Z,18.44
2023-06-16T13:01:41.548Z,18.45
2023-06-16T13:04:14.479Z,18.47
2023-06-16T13:06:47.020Z,18.76
2023-06-16T13:09:22.426Z,19.05
2023-06-16T13:11:55.022Z,19.24
2023-06-16T13:14:27.683Z,19.29
2023-06-16T13:17:02.464Z,19.16
2023-06-16T13:19:35.112Z,19.04
2023-06-16T13:22:08.670Z,19.12
2023-06-16T13:24:42.300Z,18.93
2023-06-16T13:27:14.437Z,19.05
2023-06-16T13:29:46.983Z,18.64
2023-06-16T13:32:21.856Z,18.53
2023-06-16T13:34:54.256Z,18.44
2023-06-16T13:37:26.386Z,18.96
2023-06-16T13:39:59.149Z,19.42
2023-06-16T13:42:31.577Z,19.56
2023-06-16T13:45:03.982Z,19.92
2023-06-16T13:47:38.771Z,19.61
2023-06-16T13:50:11.875Z,19.48
2023-06-16T13:52:44.022Z,19.72
2023-06-16T13:55:16.458Z,18.93
2023-06-16T13:57:48.618Z,19.01
2023-06-16T14:00:22.323Z,19.25
2023-06-16T14:02:58.550Z,19.24
2023-06-16T14:05:31.139Z,19.37
2023-06-16T14:08:04.905Z,19.47
2023-06-16T14:10:37.823Z,18.94
2023-06-16T14:13:09.900Z,19.03
2023-06-16T14:15:42.906Z,19.19
2023-06-16T14:18:17.763Z,19.53
2023-06-16T14:20:50.657Z,19.64
2023-06-16T14:23:22.655Z,19.24
2023-06-16T14:25:55.142Z,19.17
2023-06-16T14:28:27.296Z,19.54
2023-06-16T14:30:59.770Z,19.41
2023-06-16T14:33:34.557Z,18.79
2023-06-16T14:36:07.257Z,18.84
2023-06-16T14:38:39.301Z,19.22
2023-06-16T14:41:11.790Z,19.05
2023-06-16T14:43:43.939Z,19.19
2023-06-16T14:46:16.665Z,19.00
2023-06-16T14:48:51.576Z,18.85
2023-06-16T14:51:23.982Z,19.28
2023-06-16T14:53:56.176Z,19.80
2023-06-16T14:56:28.615Z,19.63
2023-06-16T14:59:00.702Z,19.72
2023-06-16T15:01:33.380Z,19.99
2023-06-16T15:04:08.574Z,20.08
2023-06-16T15:06:41.104Z,20.47
2023-06-16T15:09:13.459Z,20.64
2023-06-16T15:11:46.860Z,20.19
2023-06-16T15:14:19.348Z,19.97
2023-06-16T15:16:52.585Z,20.12
2023-06-16T15:19:28.018Z,20.29
2023-06-16T15:22:01.864Z,20.28
2023-06-16T15:24:34.514Z,20.56
2023-06-16T15:27:07.863Z,20.23
2023-06-16T15:29:40.222Z,20.31
2023-06-16T15:32:13.136Z,20.20
2023-06-16T15:34:48.221Z,19.89
2023-06-16T15:37:21.146Z,19.88
2023-06-16T15:39:53.536Z,19.91
2023-06-16T15:42:26.457Z,20.04
2023-06-16T15:44:59.147Z,20.11
2023-06-16T15:47:32.049Z,20.34
2023-06-16T15:50:07.621Z,20.63
2023-06-16T15:52:40.539Z,20.64
2023-06-16T15:55:13.389Z,20.79
2023-06-16T15:57:46.218Z,21.03
2023-06-16T16:00:19.337Z,20.57
2023-06-16T16:02:52.596Z,20.89
2023-06-16T16:05:28.179Z,21.29
2023-06-16T16:08:01.084Z,21.09
2023-06-16T16:10:33.658Z,20.56
2023-06-16T16:13:06.536Z,20.56
2023-06-16T16:15:39.496Z,20.59
2023-06-16T16:18:12.988Z,20.50
2023-06-16T16:20:49.947Z,20.06
2023-06-16T16:23:30.234Z,20.23
2023-06-16T16:26:02.736Z,20.49
2023-06-16T16:28:35.615Z,20.41
2023-06-16T16:31:08.049Z,20.14
2023-06-16T16:33:40.817Z,19.94
2023-06-16T16:36:17.423Z,19.95
2023-06-16T16:38:50.384Z,19.82
2023-06-16T16:41:22.741Z,19.15
2023-06-16T16:43:55.577Z,18.69
2023-06-16T16:46:28.427Z,18.65
2023-06-16T16:49:01.351Z,18.71
2023-06-16T16:51:36.556Z,18.21
2023-06-16T16:54:09.475Z,18.15
2023-06-16T16:56:42.016Z,18.09
2023-06-16T16:59:14.947Z,17.79
2023-06-16T17:01:48.003Z,17.52
2023-06-16T17:04:23.896Z,17.44
2023-06-16T17:06:59.135Z,17.20
2023-06-16T17:09:32.897Z,17.01
2023-06-16T17:12:05.508Z,16.73
2023-06-16T17:14:38.297Z,16.32
2023-06-16T17:17:12.160Z,16.10
2023-06-16T17:19:44.942Z,15.74
2023-06-16T17:22:20.061Z,15.44
2023-06-16T17:24:52.778Z,15.20
2023-06-16T17:27:25.268Z,15.08
2023-06-16T17:29:58.112Z,14.66
2023-06-16T17:32:30.547Z,14.53
2023-06-16T17:35:03.301Z,14.37
2023-06-16T17:37:38.416Z,14.39
2023-06-16T17:40:12.257Z,14.46
2023-06-16T17:42:44.693Z,14.34
2023-06-16T17:45:17.742Z,14.41
2023-06-16T17:47:50.183Z,14.44
2023-06-16T17:50:25.834Z,14.28
2023-06-16T17:53:04.043Z,14.29
2023-06-16T17:55:37.399Z,14.24
2023-06-16T17:58:10.552Z,14.31
2023-06-16T18:00:42.993Z,14.30
2023-06-16T18:03:15.135Z,14.26
2023-06-16T18:05:47.991Z,14.24
2023-06-16T18:08:22.669Z,14.08
2023-06-16T18:10:55.460Z,14.14
2023-06-16T18:13:28.346Z,14.13
2023-06-16T18:16:03.175Z,14.08
2023-06-16T18:18:36.792Z,14.06
2023-06-16T18:21:09.132Z,14.14
2023-06-16T18:23:43.911Z,14.16
2023-06-16T18:26:38.850Z,14.13
2023-06-16T18:29:10.997Z,14.13
2023-06-16T18:31:48.211Z,14.05
2023-06-16T18:34:20.575Z,14.06
2023-06-16T18:36:52.854Z,13.94
2023-06-16T18:39:28.173Z,13.86
2023-06-16T18:42:00.541Z,13.96
2023-06-16T18:44:33.355Z,14.04
2023-06-16T18:47:10.537Z,13.99
2023-06-16T18:49:42.571Z,14.01
2023-06-16T18:52:15.101Z,14.08
2023-06-16T18:54:49.816Z,14.04
2023-06-16T18:57:22.263Z,14.05
2023-06-16T18:59:55.499Z,14.07
2023-06-16T19:02:29.044Z,13.99
2023-06-16T19:05:01.636Z,13.94
2023-06-16T19:07:34.076Z,13.96
2023-06-16T19:10:10.162Z,13.93
2023-06-16T19:12:42.737Z,13.90
2023-06-16T19:15:19.907Z,13.88
2023-06-16T19:17:52.381Z,13.92
2023-06-16T19:20:24.505Z,13.93
2023-06-16T19:22:57.019Z,13.93
2023-06-16T19:25:32.737Z,13.94
2023-06-16T19:28:05.269Z,13.95
2023-06-16T19:30:38.006Z,14.02
2023-06-16T19:33:10.605Z,14.06
2023-06-16T19:35:42.817Z,14.05
2023-06-16T19:38:15.283Z,14.03
2023-06-16T19:40:49.908Z,14.01
2023-06-16T19:43:22.217Z,14.01
2023-06-16T19:45:54.300Z,14.02
2023-06-16T19:48:26.795Z,14.03
2023-06-16T19:50:58.840Z,14.03
2023-06-16T19:53:31.488Z,13.99
2023-06-16T19:56:06.694Z,13.98
2023-06-16T19:58:39.053Z,13.96
2023-06-16T20:01:11.415Z,13.96
2023-06-16T20:03:44.116Z,13.95
2023-06-16T20:06:16.494Z,13.96
2023-06-16T20:08:48.927Z,13.97
2023-06-16T20:11:23.656Z,13.96
2023-06-16T20:13:56.159Z,14.02
2023-06-16T20:16:28.922Z,14.07
2023-06-16T20:19:11.971Z,14.13
2023-06-16T20:21:45.456Z,14.20
2023-06-16T20:24:17.829Z,14.25
2023-06-16T20:26:52.468Z,14.30
2023-06-16T20:29:24.814Z,14.24
2023-06-16T20:31:57.412Z,14.22
2023-06-16T20:34:29.766Z,14.25
2023-06-16T20:37:01.948Z,14.05
2023-06-16T20:39:34.378Z,14.11
2023-06-16T20:42:10.267Z,13.99
2023-06-16T20:44:42.778Z,14.07
2023-06-16T20:47:14.767Z,14.11
2023-06-16T20:49:47.280Z,14.19
2023-06-16T20:52:19.395Z,14.17
2023-06-16T20:54:53.176Z,14.07
2023-06-16T20:57:27.951Z,14.00
2023-06-16T21:00:00.425Z,13.91
2023-06-16T21:02:35.264Z,13.97
2023-06-16T21:05:08.655Z,13.91
2023-06-16T21:07:45.896Z,13.79
2023-06-16T21:10:19.783Z,13.78
2023-06-16T21:12:54.944Z,13.81
2023-06-16T21:15:28.194Z,13.79
2023-06-16T21:18:01.210Z,13.62
2023-06-16T21:20:33.678Z,13.66
2023-06-16T21:23:06.446Z,13.62
2023-06-16T21:25:38.926Z,13.75
2023-06-16T21:28:13.735Z,13.72
2023-06-16T21:30:56.601Z,13.57
2023-06-16T21:33:31.173Z,13.66
2023-06-16T21:36:03.415Z,13.65
2023-06-16T21:38:37.952Z,13.78
2023-06-16T21:41:11.358Z,13.70
2023-06-16T21:43:46.133Z,13.60
2023-06-16T21:46:20.386Z,13.55
2023-06-16T21:48:53.812Z,13.58
2023-06-16T21:51:26.332Z,13.64
2023-06-16T21:53:58.298Z,13.63
2023-06-16T21:56:31.133Z,13.68
2023-06-16T21:59:05.753Z,13.70
2023-06-16T22:01:38.195Z,13.63
2023-06-16T22:04:10.278Z,13.52
2023-06-16T22:06:42.996Z,13.39
2023-06-16T22:09:15.074Z,13.33
2023-06-16T22:11:48.037Z,13.33
2023-06-16T22:14:23.016Z,13.28
2023-06-16T22:16:57.714Z,13.25
2023-06-16T22:19:31.720Z,13.25
2023-06-16T22:22:04.573Z,13.28
2023-06-16T22:24:37.014Z,13.33
2023-06-16T22:29:47.877Z,13.34
2023-06-16T22:32:20.417Z,13.27
2023-06-16T22:34:52.437Z,13.23
2023-06-16T22:37:24.930Z,13.35
2023-06-16T22:39:57.223Z,13.41
2023-06-16T22:42:29.529Z,13.35
2023-06-16T22:45:04.237Z,13.35
2023-06-16T22:47:38.772Z,13.24
2023-06-16T22:50:11.790Z,13.20
2023-06-16T22:52:44.156Z,13.18
2023-06-16T22:55:16.928Z,13.24
2023-06-16T22:57:49.297Z,13.33
2023-06-16T23:00:24.587Z,13.29
2023-06-16T23:02:57.079Z,13.25
2023-06-16T23:05:29.177Z,13.33
2023-06-16T23:08:01.493Z,13.36
2023-06-16T23:10:33.691Z,13.47
2023-06-16T23:13:06.101Z,13.46
2023-06-16T23:15:42.341Z,13.43
2023-06-16T23:18:14.836Z,13.38
2023-06-16T23:20:47.085Z,13.43
2023-06-16T23:23:19.337Z,13.38
2023-06-16T23:25:53.159Z,13.41
2023-06-16T23:28:26.003Z,13.36
2023-06-16T23:31:02.327Z,13.40
2023-06-16T23:33:37.378Z,13.46
2023-06-16T23:36:09.613Z,13.47
2023-06-16T23:38:42.135Z,13.52
2023-06-16T23:41:14.403Z,13.45
2023-06-16T23:43:47.012Z,13.28
2023-06-16T23:46:21.897Z,13.12
2023-06-16T23:48:54.382Z,13.07
2023-06-16T23:51:26.374Z,13.17
2023-06-16T23:53:58.635Z,13.30
2023-06-16T23:56:30.613Z,13.35
2023-06-16T23:59:03.013Z,13.44
